createdAt,value
2019-02-23T00:00:33.545Z,5.40
2019-02-23T00:03:02.234Z,4.80
2019-02-23T00:05:31.170Z,4.90
2019-02-23T00:07:59.809Z,4.60
2019-02-23T00:10:28.433Z,5.33
2019-02-23T00:12:57.085Z,5.20
2019-02-23T00:15:25.615Z,5.20
2019-02-23T00:17:54.236Z,5.50
2019-02-23T00:20:22.883Z,4.80
2019-02-23T00:22:51.524Z,5.10
2019-02-23T00:25:20.154Z,5.13
2019-02-23T00:27:48.791Z,4.37
2019-02-23T00:30:17.366Z,5.60
2019-02-23T00:32:45.960Z,5.13
2019-02-23T00:35:14.956Z,4.53
2019-02-23T00:37:45.078Z,5.03
2019-02-23T00:40:13.622Z,4.77
2019-02-23T00:42:42.637Z,5.10
2019-02-23T00:45:11.496Z,4.90
2019-02-23T00:47:40.118Z,4.60
2019-02-23T00:50:08.854Z,5.00
2019-02-23T00:52:37.539Z,5.20
2019-02-23T00:55:07.494Z,5.27
2019-02-23T00:57:37.323Z,5.70
2019-02-23T01:00:11.257Z,4.67
2019-02-23T01:02:40.077Z,5.60
2019-02-23T01:05:09.011Z,5.23
2019-02-23T01:07:37.637Z,4.67
2019-02-23T01:10:09.046Z,5.03
2019-02-23T01:12:37.587Z,5.47
2019-02-23T01:15:09.375Z,5.23
2019-02-23T01:17:38.069Z,5.50
2019-02-23T01:20:09.326Z,5.07
2019-02-23T01:22:38.180Z,5.77
2019-02-23T01:25:07.312Z,5.33
2019-02-23T01:27:36.025Z,5.17
2019-02-23T01:30:06.339Z,5.00
2019-02-23T01:32:34.844Z,4.50
2019-02-23T01:35:03.436Z,4.93
2019-02-23T01:37:32.002Z,5.67
2019-02-23T01:40:00.458Z,5.60
2019-02-23T01:42:28.977Z,5.00
2019-02-23T01:44:57.434Z,5.80
2019-02-23T01:47:26.113Z,5.10
2019-02-23T01:49:58.803Z,5.13
2019-02-23T01:52:25.020Z,5.60
2019-02-23T01:54:53.584Z,4.90
2019-02-23T01:57:22.212Z,5.33
2019-02-23T01:59:50.744Z,5.67
2019-02-23T02:02:19.417Z,5.60
2019-02-23T02:04:48.046Z,6.07
2019-02-23T02:07:16.762Z,5.63
2019-02-23T02:09:45.303Z,5.57
2019-02-23T02:12:15.738Z,5.20
2019-02-23T02:14:44.375Z,5.80
2019-02-23T02:17:13.202Z,4.87
2019-02-23T02:19:41.774Z,5.77
2019-02-23T02:22:10.474Z,6.10
2019-02-23T02:24:39.050Z,5.13
2019-02-23T02:27:08.236Z,5.00
2019-02-23T02:29:37.214Z,5.87
2019-02-23T02:32:05.826Z,4.90
2019-02-23T02:34:34.797Z,5.20
2019-02-23T02:37:03.475Z,6.40
2019-02-23T02:39:32.077Z,5.90
2019-02-23T02:42:00.812Z,5.70
2019-02-23T02:44:29.356Z,6.07
2019-02-23T02:46:57.894Z,5.80
2019-02-23T02:49:26.596Z,6.07
2019-02-23T02:51:55.181Z,5.43
2019-02-23T02:54:23.787Z,6.23
2019-02-23T02:56:52.354Z,5.70
2019-02-23T02:59:20.947Z,5.87
2019-02-23T03:01:49.607Z,5.80
2019-02-23T03:04:18.219Z,5.90
2019-02-23T03:06:46.883Z,5.93
2019-02-23T03:09:15.589Z,5.90
2019-02-23T03:11:44.275Z,5.53
2019-02-23T03:14:12.878Z,6.37
2019-02-23T03:16:41.534Z,6.10
2019-02-23T03:19:10.152Z,6.03
2019-02-23T03:21:38.819Z,6.00
2019-02-23T03:24:07.403Z,6.63
2019-02-23T03:26:35.971Z,6.10
2019-02-23T03:29:04.564Z,6.30
2019-02-23T03:31:33.355Z,7.33
2019-02-23T03:34:01.934Z,6.93
2019-02-23T03:36:30.500Z,6.30
2019-02-23T03:38:59.099Z,7.20
2019-02-23T03:41:27.830Z,6.70
2019-02-23T03:43:56.348Z,7.80
2019-02-23T03:46:24.873Z,6.60
2019-02-23T03:48:53.439Z,6.73
2019-02-23T03:51:21.941Z,6.30
2019-02-23T03:53:50.515Z,6.33
2019-02-23T03:56:19.203Z,6.60
2019-02-23T03:58:47.789Z,7.00
2019-02-23T04:01:16.875Z,7.30
2019-02-23T04:03:45.439Z,7.27
2019-02-23T04:06:13.950Z,7.13
2019-02-23T04:08:42.563Z,7.27
2019-02-23T04:11:11.094Z,8.07
2019-02-23T04:13:39.612Z,7.10
2019-02-23T04:16:08.093Z,6.80
2019-02-23T04:18:36.616Z,6.97
2019-02-23T04:21:05.086Z,7.27
2019-02-23T04:23:33.624Z,7.80
2019-02-23T04:26:02.273Z,7.67
2019-02-23T04:28:30.768Z,6.47
2019-02-23T04:30:59.218Z,8.20
2019-02-23T04:33:27.729Z,6.93
2019-02-23T04:35:56.202Z,8.77
2019-02-23T04:38:24.697Z,7.50
2019-02-23T04:40:53.177Z,7.37
2019-02-23T04:43:21.684Z,7.80
2019-02-23T04:45:50.140Z,9.07
2019-02-23T04:48:18.649Z,8.30
2019-02-23T04:50:47.101Z,7.90
2019-02-23T04:53:15.646Z,8.23
2019-02-23T04:55:44.102Z,8.40
2019-02-23T04:58:12.668Z,8.17
2019-02-23T05:00:41.130Z,7.93
2019-02-23T05:03:09.669Z,8.50
2019-02-23T05:05:38.170Z,8.57
2019-02-23T05:08:06.740Z,8.33
2019-02-23T05:10:35.335Z,8.37
2019-02-23T05:13:03.937Z,9.20
2019-02-23T05:15:33.333Z,8.90
2019-02-23T05:18:01.914Z,9.37
2019-02-23T05:20:30.416Z,8.60
2019-02-23T05:22:59.330Z,8.30
2019-02-23T05:25:27.844Z,8.17
2019-02-23T05:27:56.426Z,8.53
2019-02-23T05:30:24.921Z,9.87
2019-02-23T05:32:53.502Z,9.10
2019-02-23T05:35:22.032Z,9.23
2019-02-23T05:37:50.584Z,9.33
2019-02-23T05:40:19.095Z,8.70
2019-02-23T05:42:47.676Z,8.10
2019-02-23T05:45:16.199Z,7.53
2019-02-23T05:47:44.739Z,7.53
2019-02-23T05:50:13.282Z,8.57
2019-02-23T05:52:41.878Z,8.40
2019-02-23T05:55:10.443Z,8.63
2019-02-23T05:57:38.993Z,8.83
2019-02-23T06:00:11.203Z,8.83
2019-02-23T06:02:39.832Z,8.20
2019-02-23T06:05:08.402Z,8.30
2019-02-23T06:07:37.039Z,9.43
2019-02-23T06:10:08.380Z,8.93
2019-02-23T06:12:36.973Z,8.07
2019-02-23T06:15:08.897Z,8.60
2019-02-23T06:17:37.528Z,8.63
2019-02-23T06:20:07.868Z,8.73
2019-02-23T06:22:36.423Z,8.47
2019-02-23T06:25:07.288Z,8.80
2019-02-23T06:27:35.957Z,8.30
2019-02-23T06:30:07.293Z,8.63
2019-02-23T06:32:35.861Z,9.50
2019-02-23T06:35:05.713Z,8.70
2019-02-23T06:37:34.301Z,8.83
2019-02-23T06:40:02.898Z,9.07
2019-02-23T06:42:31.558Z,9.37
2019-02-23T06:45:00.273Z,9.80
2019-02-23T06:47:28.924Z,9.80
2019-02-23T06:49:57.542Z,8.83
2019-02-23T06:52:26.099Z,9.47
2019-02-23T06:54:54.691Z,9.10
2019-02-23T06:57:23.281Z,10.10
2019-02-23T06:59:51.888Z,9.43
2019-02-23T07:02:20.530Z,9.20
2019-02-23T07:04:49.138Z,8.37
2019-02-23T07:07:17.716Z,8.87
2019-02-23T07:09:46.296Z,8.67
2019-02-23T07:12:14.888Z,9.10
2019-02-23T07:14:43.464Z,9.77
2019-02-23T07:17:12.132Z,9.00
2019-02-23T07:19:40.727Z,9.07
2019-02-23T07:22:15.408Z,9.03
2019-02-23T07:24:39.640Z,9.07
2019-02-23T07:27:08.436Z,10.10
2019-02-23T07:29:37.016Z,9.40
2019-02-23T07:32:05.675Z,9.53
2019-02-23T07:34:34.280Z,9.70
2019-02-23T07:37:02.949Z,9.90
2019-02-23T07:39:31.551Z,9.10
2019-02-23T07:42:00.128Z,9.93
2019-02-23T07:44:28.723Z,10.60
2019-02-23T07:46:57.508Z,8.70
2019-02-23T07:49:26.070Z,9.97
2019-02-23T07:51:54.679Z,10.20
2019-02-23T07:54:23.656Z,10.10
2019-02-23T07:56:52.253Z,9.53
2019-02-23T07:59:20.811Z,10.07
2019-02-23T08:01:49.429Z,10.37
2019-02-23T08:04:17.997Z,9.50
2019-02-23T08:06:46.584Z,9.90
2019-02-23T08:09:15.151Z,10.20
2019-02-23T08:11:43.980Z,10.20
2019-02-23T08:14:12.519Z,9.30
2019-02-23T08:16:41.165Z,9.47
2019-02-23T08:19:09.709Z,8.70
2019-02-23T08:21:38.294Z,9.40
2019-02-23T08:24:06.852Z,9.43
2019-02-23T08:26:35.716Z,9.20
2019-02-23T08:29:04.745Z,9.43
2019-02-23T08:31:33.352Z,9.90
2019-02-23T08:34:01.936Z,9.30
2019-02-23T08:36:32.739Z,9.20
2019-02-23T08:39:01.363Z,9.00
2019-02-23T08:41:30.022Z,8.93
2019-02-23T08:43:58.652Z,8.80
2019-02-23T08:46:27.290Z,8.97
2019-02-23T08:48:55.920Z,8.53
2019-02-23T08:51:24.592Z,7.80
2019-02-23T08:53:53.125Z,9.20
2019-02-23T08:56:21.728Z,8.60
2019-02-23T08:58:50.267Z,8.40
2019-02-23T09:01:18.891Z,8.20
2019-02-23T09:03:49.721Z,8.50
2019-02-23T09:06:17.803Z,8.00
2019-02-23T09:08:46.363Z,8.13
2019-02-23T09:11:14.972Z,7.90
2019-02-23T09:13:45.540Z,8.13
2019-02-23T09:16:14.289Z,7.93
2019-02-23T09:18:42.781Z,7.33
2019-02-23T09:21:11.422Z,7.23
2019-02-23T09:23:40.333Z,7.73
2019-02-23T09:26:08.927Z,8.73
2019-02-23T09:28:38.609Z,8.50
2019-02-23T09:31:07.226Z,8.07
2019-02-23T09:33:35.779Z,7.60
2019-02-23T09:36:04.457Z,7.13
2019-02-23T09:38:33.118Z,7.47
2019-02-23T09:41:01.902Z,7.30
2019-02-23T09:43:30.840Z,7.57
2019-02-23T09:45:59.475Z,8.17
2019-02-23T09:48:28.005Z,6.60
2019-02-23T09:50:57.107Z,7.53
2019-02-23T09:53:25.720Z,7.93
2019-02-23T09:55:54.375Z,8.80
2019-02-23T09:58:22.977Z,7.60
2019-02-23T10:00:51.657Z,8.63
2019-02-23T10:03:20.234Z,7.37
2019-02-23T10:05:48.818Z,6.93
2019-02-23T10:08:17.370Z,8.10
2019-02-23T10:10:46.188Z,8.13
2019-02-23T10:13:14.754Z,7.37
2019-02-23T10:15:43.514Z,8.80
2019-02-23T10:18:12.132Z,7.27
2019-02-23T10:20:40.826Z,7.37
2019-02-23T10:23:09.422Z,7.73
2019-02-23T10:25:37.976Z,7.00
2019-02-23T10:28:06.952Z,6.43
2019-02-23T10:30:35.587Z,7.40
2019-02-23T10:33:04.158Z,6.20
2019-02-23T10:35:32.838Z,6.97
2019-02-23T10:38:01.451Z,6.33
2019-02-23T10:40:30.089Z,6.37
2019-02-23T10:42:58.696Z,6.50
2019-02-23T10:45:27.364Z,7.07
2019-02-23T10:47:56.008Z,6.63
2019-02-23T10:50:24.627Z,7.50
2019-02-23T10:52:53.159Z,6.50
2019-02-23T10:55:21.788Z,6.20
2019-02-23T10:57:50.430Z,7.00
2019-02-23T11:00:20.806Z,7.40
2019-02-23T11:02:49.662Z,8.90
2019-02-23T11:05:18.883Z,8.13
2019-02-23T11:07:47.566Z,7.73
2019-02-23T11:10:16.739Z,7.80
2019-02-23T11:12:45.419Z,7.30
2019-02-23T11:15:17.027Z,8.90
2019-02-23T11:17:46.437Z,7.83
2019-02-23T11:20:15.641Z,9.00
2019-02-23T11:22:44.235Z,8.33
2019-02-23T11:25:12.953Z,7.60
2019-02-23T11:27:42.629Z,8.60
2019-02-23T11:30:13.311Z,8.00
2019-02-23T11:32:42.404Z,8.50
2019-02-23T11:35:13.103Z,8.80
2019-02-23T11:37:41.711Z,9.23
2019-02-23T11:40:12.088Z,10.37
2019-02-23T11:42:40.776Z,10.13
2019-02-23T11:45:10.896Z,9.03
2019-02-23T11:47:39.586Z,9.63
2019-02-23T11:50:12.393Z,10.67
2019-02-23T11:52:40.922Z,10.47
2019-02-23T11:55:09.896Z,10.63
2019-02-23T11:57:39.038Z,9.57
2019-02-23T12:00:12.904Z,10.10
2019-02-23T12:02:51.788Z,10.90
2019-02-23T12:05:12.178Z,10.63
2019-02-23T12:07:40.797Z,9.43
2019-02-23T12:10:16.199Z,9.93
2019-02-23T12:12:44.824Z,10.17
2019-02-23T12:15:13.670Z,9.33
2019-02-23T12:17:42.623Z,9.77
2019-02-23T12:20:11.642Z,9.83
2019-02-23T12:22:40.330Z,10.60
2019-02-23T12:25:09.219Z,10.03
2019-02-23T12:27:37.831Z,9.23
2019-02-23T12:30:09.598Z,8.17
2019-02-23T12:32:38.143Z,9.50
2019-02-23T12:35:09.633Z,9.00
2019-02-23T12:37:38.652Z,8.20
2019-02-23T12:40:08.817Z,8.50
2019-02-23T12:42:37.440Z,8.80
2019-02-23T12:45:09.174Z,8.07
2019-02-23T12:47:37.983Z,8.70
2019-02-23T12:50:10.010Z,8.20
2019-02-23T12:52:38.608Z,8.93
2019-02-23T12:55:09.317Z,8.67
2019-02-23T12:57:37.903Z,8.70
2019-02-23T13:00:09.922Z,9.50
2019-02-23T13:02:38.480Z,9.47
2019-02-23T13:05:07.473Z,9.20
2019-02-23T13:07:36.153Z,9.40
2019-02-23T13:10:07.802Z,9.63
2019-02-23T13:12:54.550Z,10.07
2019-02-23T13:15:29.431Z,9.23
2019-02-23T13:18:26.150Z,9.53
2019-02-23T13:21:15.974Z,8.80
2019-02-23T13:23:47.717Z,8.80
2019-02-23T13:26:37.281Z,7.87
2019-02-23T13:29:14.907Z,9.17
2019-02-23T13:31:49.733Z,10.50
2019-02-23T13:34:27.221Z,8.53
2019-02-23T13:37:05.038Z,8.73
2019-02-23T13:39:45.485Z,8.43
2019-02-23T13:42:29.506Z,8.47
2019-02-23T13:45:07.113Z,8.20
2019-02-23T13:47:56.557Z,8.53
2019-02-23T13:50:30.924Z,8.80
2019-02-23T13:53:22.114Z,9.37
2019-02-23T13:56:30.351Z,9.53
2019-02-23T13:59:20.121Z,8.30
2019-02-23T14:01:57.681Z,8.83
2019-02-23T14:05:02.831Z,8.40
2019-02-23T14:07:34.598Z,8.00
2019-02-23T14:10:09.266Z,7.13
2019-02-23T14:12:46.662Z,8.30
2019-02-23T14:15:39.305Z,8.13
2019-02-23T14:18:33.032Z,6.93
2019-02-23T14:21:16.039Z,7.40
2019-02-23T14:24:22.631Z,7.03
2019-02-23T14:27:00.137Z,7.27
2019-02-23T14:29:40.656Z,7.27
2019-02-23T14:32:29.237Z,7.77
2019-02-23T14:35:03.938Z,7.83
2019-02-23T14:37:41.860Z,6.93
2019-02-23T14:40:16.537Z,6.20
2019-02-23T14:42:48.350Z,6.63
2019-02-23T14:45:36.831Z,7.13
2019-02-23T14:48:29.676Z,7.20
2019-02-23T14:51:19.307Z,6.97
2019-02-23T14:54:19.593Z,6.53
2019-02-23T14:56:57.418Z,8.10
2019-02-23T14:59:29.193Z,6.27
2019-02-23T15:02:22.004Z,6.80
2019-02-23T15:05:18.110Z,6.10
2019-02-23T15:07:58.690Z,6.60
2019-02-23T15:10:49.888Z,6.40
2019-02-23T15:13:37.037Z,6.50
2019-02-23T15:16:25.181Z,6.30
2019-02-23T15:19:24.408Z,6.40
2019-02-23T15:22:11.347Z,5.90
2019-02-23T15:24:48.858Z,7.73
2019-02-23T15:27:20.845Z,8.40
2019-02-23T15:30:04.884Z,8.43
2019-02-23T15:33:02.355Z,8.47
2019-02-23T15:35:48.877Z,8.67
2019-02-23T15:38:37.048Z,8.87
2019-02-23T15:41:27.026Z,8.57
2019-02-23T15:44:25.666Z,8.47
2019-02-23T15:47:06.181Z,8.60
2019-02-23T15:49:35.360Z,8.00
2019-02-23T15:52:04.709Z,9.37
2019-02-23T15:54:33.426Z,8.77
2019-02-23T15:57:01.960Z,8.33
2019-02-23T15:59:30.538Z,7.90
2019-02-23T16:02:01.523Z,8.10
2019-02-23T16:04:30.185Z,8.13
2019-02-23T16:06:58.827Z,8.90
2019-02-23T16:09:29.667Z,11.83
2019-02-23T16:11:58.451Z,13.23
2019-02-23T16:14:27.046Z,13.87
2019-02-23T16:16:55.647Z,11.13
2019-02-23T16:19:24.265Z,9.70
2019-02-23T16:21:53.218Z,11.40
2019-02-23T16:24:21.858Z,8.90
2019-02-23T16:26:50.510Z,9.00
2019-02-23T16:29:19.018Z,8.93
2019-02-23T16:31:47.705Z,9.27
2019-02-23T16:34:16.230Z,9.00
2019-02-23T16:36:44.811Z,8.50
2019-02-23T16:39:13.458Z,9.43
2019-02-23T16:41:42.178Z,8.17
2019-02-23T16:44:10.811Z,9.50
2019-02-23T16:46:40.082Z,9.57
2019-02-23T16:49:08.795Z,9.00
2019-02-23T16:51:37.855Z,9.03
2019-02-23T16:54:06.458Z,8.00
2019-02-23T16:56:35.111Z,8.93
2019-02-23T16:59:03.742Z,7.70
2019-02-23T17:01:35.352Z,9.50
2019-02-23T17:04:04.006Z,8.57
2019-02-23T17:06:34.824Z,20.97
2019-02-23T17:09:04.116Z,14.43
2019-02-23T17:11:32.778Z,8.80
2019-02-23T17:14:01.482Z,8.07
2019-02-23T17:16:30.541Z,8.70
2019-02-23T17:18:59.134Z,11.73
2019-02-23T17:21:27.700Z,9.70
2019-02-23T17:23:56.285Z,9.70
2019-02-23T17:26:26.123Z,8.40
2019-02-23T17:28:55.135Z,9.07
2019-02-23T17:31:23.728Z,10.17
2019-02-23T17:33:52.279Z,13.73
2019-02-23T17:36:21.143Z,12.27
2019-02-23T17:38:49.787Z,9.93
2019-02-23T17:41:18.410Z,11.00
2019-02-23T17:43:47.006Z,10.80
2019-02-23T17:46:15.553Z,10.80
2019-02-23T17:48:44.363Z,10.80
2019-02-23T17:51:12.943Z,9.80
2019-02-23T17:53:41.501Z,10.43
2019-02-23T17:56:12.343Z,10.50
2019-02-23T17:58:41.326Z,11.10
2019-02-23T18:01:10.428Z,10.63
2019-02-23T18:03:39.051Z,11.20
2019-02-23T18:06:07.847Z,11.10
2019-02-23T18:08:37.805Z,10.40
2019-02-23T18:11:07.212Z,11.30
2019-02-23T18:13:37.205Z,11.17
2019-02-23T18:16:05.976Z,9.80
2019-02-23T18:18:34.897Z,10.23
2019-02-23T18:21:04.037Z,10.70
2019-02-23T18:23:32.997Z,10.50
2019-02-23T18:26:01.649Z,10.77
2019-02-23T18:28:30.248Z,10.30
2019-02-23T18:30:58.871Z,10.10
2019-02-23T18:33:27.578Z,10.20
2019-02-23T18:35:56.430Z,10.53
2019-02-23T18:38:25.687Z,10.20
2019-02-23T18:40:54.310Z,10.97
2019-02-23T18:43:22.988Z,10.70
2019-02-23T18:45:53.775Z,11.60
2019-02-23T18:48:22.719Z,11.53
2019-02-23T18:50:51.422Z,10.60
2019-02-23T18:53:20.470Z,11.03
2019-02-23T18:55:49.310Z,11.17
2019-02-23T18:58:17.937Z,10.90
2019-02-23T19:00:46.706Z,12.27
2019-02-23T19:03:15.306Z,11.50
2019-02-23T19:05:49.859Z,12.00
2019-02-23T19:08:14.937Z,11.03
2019-02-23T19:10:46.740Z,11.50
2019-02-23T19:13:15.892Z,11.30
2019-02-23T19:15:44.602Z,12.20
2019-02-23T19:18:13.409Z,12.70
2019-02-23T19:20:42.381Z,11.97
2019-02-23T19:23:12.391Z,11.83
2019-02-23T19:25:41.305Z,13.77
2019-02-23T19:28:10.376Z,12.30
2019-02-23T19:30:39.162Z,13.33
2019-02-23T19:33:07.968Z,13.97
2019-02-23T19:35:38.615Z,13.37
2019-02-23T19:38:09.639Z,12.97
2019-02-23T19:40:38.648Z,12.80
2019-02-23T19:43:07.803Z,12.67
2019-02-23T19:45:36.582Z,14.60
2019-02-23T19:48:05.507Z,12.97
2019-02-23T19:50:43.579Z,13.73
2019-02-23T19:53:15.281Z,12.93
2019-02-23T19:55:44.160Z,13.63
2019-02-23T19:58:13.074Z,12.97
2019-02-23T20:00:42.051Z,14.50
2019-02-23T20:03:11.150Z,12.70
2019-02-23T20:05:40.140Z,12.63
2019-02-23T20:08:09.352Z,13.47
2019-02-23T20:10:38.569Z,14.20
2019-02-23T20:13:07.219Z,14.50
2019-02-23T20:15:35.960Z,14.10
2019-02-23T20:18:05.946Z,13.53
2019-02-23T20:20:34.909Z,14.47
2019-02-23T20:23:03.656Z,12.73
2019-02-23T20:25:32.714Z,13.33
2019-02-23T20:28:01.550Z,13.40
2019-02-23T20:30:30.297Z,14.70
2019-02-23T20:32:59.021Z,13.67
2019-02-23T20:35:28.060Z,13.53
2019-02-23T20:37:56.931Z,13.43
2019-02-23T20:40:25.521Z,13.00
2019-02-23T20:42:54.163Z,12.40
2019-02-23T20:45:22.744Z,13.93
2019-02-23T20:47:51.562Z,14.93
2019-02-23T20:50:21.970Z,13.50
2019-02-23T20:52:50.737Z,13.60
2019-02-23T20:55:19.271Z,14.23
2019-02-23T20:57:47.974Z,13.60
2019-02-23T21:00:16.603Z,13.70
2019-02-23T21:02:45.222Z,15.77
2019-02-23T21:05:14.606Z,14.23
2019-02-23T21:07:43.587Z,16.57
2019-02-23T21:10:12.307Z,14.80
2019-02-23T21:12:40.993Z,15.93
2019-02-23T21:15:11.343Z,14.00
2019-02-23T21:17:40.331Z,13.77
2019-02-23T21:20:10.698Z,14.40
2019-02-23T21:22:39.768Z,14.33
2019-02-23T21:25:09.702Z,13.80
2019-02-23T21:27:38.673Z,13.53
2019-02-23T21:30:09.695Z,14.03
2019-02-23T21:32:38.607Z,13.93
2019-02-23T21:35:08.356Z,14.50
2019-02-23T21:37:37.047Z,15.53
2019-02-23T21:40:09.841Z,14.30
2019-02-23T21:42:38.564Z,14.87
2019-02-23T21:45:09.002Z,14.63
2019-02-23T21:47:37.708Z,14.40
2019-02-23T21:50:10.332Z,14.67
2019-02-23T21:52:39.114Z,14.33
2019-02-23T21:55:07.875Z,14.10
2019-02-23T21:57:36.565Z,14.63
2019-02-23T22:00:09.581Z,13.80
2019-02-23T22:02:38.235Z,15.07
2019-02-23T22:05:12.312Z,14.60
2019-02-23T22:07:37.900Z,14.33
2019-02-23T22:10:08.988Z,14.50
2019-02-23T22:12:37.722Z,14.90
2019-02-23T22:15:07.482Z,13.60
2019-02-23T22:17:37.145Z,16.03
2019-02-23T22:20:08.143Z,13.80
2019-02-23T22:22:37.252Z,13.67
2019-02-23T22:25:05.876Z,14.97
2019-02-23T22:27:34.449Z,15.53
2019-02-23T22:30:03.182Z,14.83
2019-02-23T22:32:31.920Z,15.10
2019-02-23T22:35:00.676Z,14.63
2019-02-23T22:37:29.530Z,15.10
2019-02-23T22:39:58.446Z,15.07
2019-02-23T22:42:27.125Z,15.40
2019-02-23T22:44:55.979Z,16.07
2019-02-23T22:47:24.521Z,16.33
2019-02-23T22:49:54.616Z,16.43
2019-02-23T22:52:23.142Z,15.00
2019-02-23T22:54:51.691Z,15.10
2019-02-23T22:57:20.361Z,15.93
2019-02-23T22:59:48.987Z,15.93
2019-02-23T23:02:17.627Z,16.77
2019-02-23T23:04:46.258Z,16.73
2019-02-23T23:07:14.919Z,16.13
2019-02-23T23:09:43.496Z,17.77
2019-02-23T23:12:12.172Z,17.73
2019-02-23T23:14:40.770Z,17.80
2019-02-23T23:17:09.447Z,17.00
2019-02-23T23:19:37.993Z,18.87
2019-02-23T23:22:06.698Z,19.07
2019-02-23T23:24:37.492Z,19.40
2019-02-23T23:27:06.172Z,18.30
2019-02-23T23:29:34.735Z,19.00
2019-02-23T23:32:03.470Z,20.07
2019-02-23T23:34:32.095Z,18.33
2019-02-23T23:37:00.777Z,19.60
2019-02-23T23:39:29.440Z,19.07
2019-02-23T23:41:58.162Z,19.00
2019-02-23T23:44:26.732Z,17.97
2019-02-23T23:46:55.451Z,18.40
2019-02-23T23:49:24.010Z,18.90
2019-02-23T23:51:52.664Z,20.20
2019-02-23T23:54:21.238Z,20.40
2019-02-23T23:56:49.937Z,19.40
2019-02-23T23:59:18.581Z,19.10
